createdAt,value
2022-09-21T00:00:33.894Z,3.72
2022-09-21T00:10:41.261Z,4.00
2022-09-21T00:15:48.764Z,3.78
2022-09-21T00:20:54.740Z,3.92
2022-09-21T06:46:44.890Z,5.22
2022-09-21T06:51:50.183Z,6.65
2022-09-21T07:02:03.955Z,6.15
2022-09-21T07:07:09.670Z,5.38
2022-09-21T07:12:15.111Z,5.55
2022-09-21T07:17:19.530Z,4.90
2022-09-21T07:22:24.646Z,7.55
2022-09-21T07:27:30.688Z,5.35
2022-09-21T07:32:34.700Z,4.75
2022-09-21T07:37:40.193Z,5.07
2022-09-21T07:42:45.147Z,4.75
2022-09-21T07:52:57.622Z,4.20
2022-09-21T07:58:18.800Z,4.72
2022-09-21T08:03:22.462Z,4.30
2022-09-21T08:08:27.616Z,4.93
2022-09-21T08:13:33.562Z,4.18
2022-09-21T08:18:44.616Z,4.05
2022-09-21T08:23:51.984Z,3.70
2022-09-21T08:28:58.874Z,4.55
2022-09-21T08:34:05.729Z,4.07
2022-09-21T08:39:11.007Z,3.90
2022-09-21T08:44:20.689Z,4.07
2022-09-21T08:49:28.918Z,4.38
2022-09-21T08:54:45.266Z,4.57
2022-09-21T08:59:50.645Z,4.47
2022-09-21T09:05:04.641Z,5.60
2022-09-21T09:10:21.054Z,4.28
2022-09-21T09:15:42.868Z,3.72
2022-09-21T09:20:50.495Z,3.47
2022-09-21T09:26:01.161Z,3.95
2022-09-21T09:31:14.628Z,4.22
2022-09-21T09:36:30.071Z,4.38
2022-09-21T09:42:23.939Z,4.85
2022-09-21T09:47:39.948Z,2.97
2022-09-21T09:52:45.236Z,2.10
2022-09-21T09:57:50.192Z,2.40
2022-09-21T10:02:56.566Z,1.85
2022-09-21T10:08:31.303Z,1.30
2022-09-21T10:13:45.023Z,0.98
2022-09-21T10:18:52.118Z,1.35
2022-09-21T10:24:04.364Z,0.90
2022-09-21T10:29:20.456Z,0.93
2022-09-21T10:34:27.350Z,1.30
2022-09-21T10:39:32.558Z,1.13
2022-09-21T10:44:40.354Z,0.82
2022-09-21T10:49:50.259Z,0.80
2022-09-21T10:54:57.117Z,0.82
2022-09-21T11:00:29.593Z,0.85
2022-09-21T11:05:38.142Z,0.52
2022-09-21T11:10:48.366Z,1.08
2022-09-21T11:15:57.820Z,1.10
2022-09-21T11:21:10.515Z,0.60
2022-09-21T11:26:23.339Z,0.90
2022-09-21T11:31:50.146Z,0.90
2022-09-21T11:37:09.910Z,0.90
2022-09-21T11:42:23.802Z,1.00
2022-09-21T11:47:41.408Z,1.00
2022-09-21T11:52:59.753Z,0.73
2022-09-21T11:58:18.619Z,1.30
2022-09-21T12:03:41.605Z,0.70
2022-09-21T12:09:29.726Z,1.35
2022-09-21T12:14:42.798Z,0.60
2022-09-21T12:19:56.864Z,0.90
2022-09-21T12:25:04.348Z,0.60
2022-09-21T12:30:14.950Z,4.22
2022-09-21T12:35:25.717Z,2.25
2022-09-21T12:40:38.033Z,1.10
2022-09-21T12:45:47.389Z,1.65
2022-09-21T12:50:57.147Z,1.67
2022-09-21T12:56:09.653Z,1.48
2022-09-21T13:01:26.221Z,1.60
2022-09-21T13:06:50.530Z,1.65
2022-09-21T13:11:56.979Z,1.25
2022-09-21T13:17:04.971Z,1.38
2022-09-21T13:22:18.970Z,1.27
2022-09-21T13:27:22.462Z,1.13
2022-09-21T13:32:54.719Z,1.10
2022-09-21T13:38:25.928Z,0.80
2022-09-21T13:44:05.225Z,0.98
2022-09-21T13:49:21.291Z,3.00
2022-09-21T13:54:28.057Z,0.70
2022-09-21T13:59:34.890Z,0.90
2022-09-21T14:04:41.118Z,0.73
2022-09-21T14:09:55.902Z,1.08
2022-09-21T14:15:34.329Z,1.48
2022-09-21T14:20:39.867Z,1.35
2022-09-21T14:25:52.167Z,1.00
2022-09-21T14:31:00.449Z,0.70
2022-09-21T14:36:11.589Z,0.90
2022-09-21T14:41:20.295Z,0.82
2022-09-21T14:46:59.807Z,0.68
2022-09-21T14:52:24.900Z,0.90
2022-09-21T14:57:49.363Z,1.27
2022-09-21T15:03:19.349Z,0.95
2022-09-21T15:09:03.938Z,0.60
2022-09-21T15:14:24.467Z,0.73
2022-09-21T15:19:40.095Z,0.70
2022-09-21T15:24:51.810Z,0.85
2022-09-21T15:29:57.562Z,0.70
2022-09-21T15:35:03.667Z,0.70
2022-09-21T15:40:19.883Z,0.50
2022-09-21T15:45:27.282Z,0.80
2022-09-21T15:50:40.204Z,1.52
2022-09-21T15:56:49.664Z,2.45
2022-09-21T16:08:09.470Z,0.90
2022-09-21T16:13:37.996Z,0.50
2022-09-21T16:18:49.384Z,0.60
2022-09-21T16:23:55.457Z,0.70
2022-09-21T16:29:18.164Z,0.63
2022-09-21T16:34:35.264Z,0.70
2022-09-21T16:39:38.922Z,0.80
2022-09-21T16:44:45.063Z,0.70
2022-09-21T16:49:50.041Z,0.90
2022-09-21T16:54:56.558Z,1.90
2022-09-21T17:00:00.032Z,2.33
2022-09-21T17:05:08.612Z,3.10
2022-09-21T17:10:17.122Z,2.30
2022-09-21T17:15:22.913Z,1.48
2022-09-21T17:20:34.396Z,3.85
2022-09-21T17:25:40.362Z,8.90
2022-09-21T17:30:46.491Z,5.78
2022-09-21T17:35:53.138Z,4.90
2022-09-21T17:40:57.568Z,3.35
2022-09-21T17:46:09.245Z,2.45
2022-09-21T17:51:38.429Z,1.52
2022-09-21T17:56:48.316Z,2.03
2022-09-21T18:01:52.692Z,2.80
2022-09-21T18:06:59.295Z,2.75
2022-09-21T18:12:30.452Z,2.50
2022-09-21T18:17:52.572Z,2.60
2022-09-21T18:23:07.747Z,3.72
2022-09-21T18:28:17.129Z,3.40
2022-09-21T18:33:33.136Z,3.25
2022-09-21T18:38:42.711Z,5.68
2022-09-21T18:44:06.003Z,3.65
2022-09-21T18:49:28.997Z,3.70
2022-09-21T18:54:37.949Z,3.20
2022-09-21T18:59:44.496Z,4.50
2022-09-21T19:04:53.613Z,4.65
2022-09-21T19:10:08.398Z,6.72
2022-09-21T19:16:00.795Z,5.88
2022-09-21T19:21:21.842Z,3.42
2022-09-21T19:26:40.746Z,7.38
2022-09-21T19:31:50.510Z,9.45
2022-09-21T19:42:56.596Z,6.93
2022-09-21T19:48:07.081Z,10.93
2022-09-21T19:59:28.872Z,6.95
2022-09-21T20:04:39.409Z,6.22
2022-09-21T20:09:54.536Z,7.38
2022-09-21T20:15:15.926Z,13.30
2022-09-21T20:20:29.424Z,10.43
2022-09-21T20:25:40.269Z,8.95
2022-09-21T20:31:24.155Z,10.77
2022-09-21T20:36:45.087Z,15.40
2022-09-21T20:47:24.572Z,15.43
2022-09-21T20:52:30.740Z,16.77
2022-09-21T20:57:35.006Z,12.55
2022-09-21T21:02:44.293Z,10.98
2022-09-21T21:07:50.734Z,10.52
2022-09-21T21:13:37.333Z,10.40
2022-09-21T21:24:53.752Z,11.35
2022-09-21T21:29:57.772Z,8.68
2022-09-21T21:35:01.911Z,4.97
2022-09-21T21:40:09.114Z,9.17
2022-09-21T21:45:12.861Z,8.77
2022-09-21T21:50:16.780Z,7.40
2022-09-21T22:06:51.731Z,6.78
2022-09-21T22:17:00.916Z,10.50
2022-09-21T22:22:05.834Z,5.38
2022-09-21T22:27:09.311Z,6.82
2022-09-21T22:32:12.804Z,5.00
2022-09-21T22:37:17.584Z,5.68
2022-09-21T22:42:20.999Z,5.60
2022-09-21T22:47:29.315Z,4.78
2022-09-21T22:52:34.737Z,5.18
2022-09-21T22:57:38.404Z,6.53
2022-09-21T23:02:43.554Z,5.55
2022-09-21T23:07:51.621Z,5.43
2022-09-21T23:12:55.265Z,4.85
2022-09-21T23:17:58.786Z,4.63
2022-09-21T23:23:06.068Z,5.90
2022-09-21T23:28:09.559Z,9.52
2022-09-21T23:33:13.325Z,6.07
2022-09-21T23:38:18.188Z,5.47
2022-09-21T23:43:21.870Z,5.15
2022-09-21T23:48:26.800Z,5.05
2022-09-21T23:53:32.312Z,4.35
2022-09-21T23:58:38.107Z,3.88
